Time;durP1;ratioP1;P1;durP2;ratioP2;P2;SDS_P1;SDS_P2;PMS_P1;PMS_P2;Temp;Humidity;BMP_temperature;BMP_pressure;BME280_temperature;BME280_humidity;BME280_pressure;Samples;Min_cycle;Max_cycle;Signal;HPM_P1;HPM_P2
2023/02/01 00:01:10;;;;;;;;;;;;;;;20.17;44.43;100595.09;5050220;28;3347;-61
2023/02/01 00:03:37;;;;;;;;;;;;;;;20.17;44.27;100602.97;5049988;28;3009;-61
2023/02/01 00:06:03;;;;;;;;;;;;;;;20.13;44.31;100591.28;5048461;28;3039;-61
2023/02/01 00:08:30;;;;;;;;;;;;;;;20.13;44.33;100602.78;5049490;28;2712;-61
2023/02/01 00:11:03;;;;;;;;;;;;;;;20.12;44.35;100604.19;5046379;28;3141;-61
2023/02/01 00:13:30;;;;;;;;;;;;;;;20.12;44.10;100601.31;5046327;28;2972;-61
2023/02/01 00:16:10;;;;;;;;;;;;;;;20.09;44.22;100572.50;5043857;28;3041;-61
2023/02/01 00:18:36;;;;;;;;;;;;;;;20.09;44.31;100597.63;5048870;28;2524;-61
2023/02/01 00:21:03;;;;;;;;;;;;;;;20.09;43.99;100604.09;5038938;28;2779;-61
2023/02/01 00:23:31;;;;;;;;;;;;;;;20.09;44.30;100594.75;5042048;28;2606;-61
2023/02/01 00:25:59;;;;;;;;;;;;;;;20.08;44.27;100590.38;5044337;28;3643;-61
2023/02/01 00:28:25;;;;;;;;;;;;;;;20.08;44.33;100571.00;5049265;28;1890;-60
2023/02/01 00:30:55;;;;;;;;;;;;;;;20.07;44.27;100575.28;5043116;28;3069;-61
2023/02/01 00:33:22;;;;;;;;;;;;;;;20.04;44.24;100582.34;5050832;28;2965;-61
2023/02/01 00:35:49;;;;;;;;;;;;;;;20.04;44.41;100582.34;5051511;28;3114;-61
2023/02/01 00:38:16;;;;;;;;;;;;;;;20.04;44.23;100588.09;5050722;28;3420;-60
2023/02/01 00:40:42;;;;;;;;;;;;;;;20.04;44.16;100588.09;5049787;28;2994;-61
2023/02/01 00:43:09;;;;;;;;;;;;;;;20.07;44.17;100592.53;5048795;28;3344;-62
2023/02/01 00:45:35;;;;;;;;;;;;;;;20.08;44.14;100602.59;5055920;28;3032;-62
2023/02/01 00:48:01;;;;;;;;;;;;;;;20.09;44.01;100606.97;5047625;28;2914;-61
2023/02/01 00:50:28;;;;;;;;;;;;;;;20.11;44.16;100611.31;5049896;28;2995;-62
2023/02/01 00:52:55;;;;;;;;;;;;;;;20.11;44.20;100614.19;5051457;28;3080;-61
2023/02/01 00:55:21;;;;;;;;;;;;;;;20.11;44.16;100608.44;5050481;28;3164;-61
2023/02/01 00:57:47;;;;;;;;;;;;;;;20.12;44.23;100609.94;5053320;28;2961;-61
2023/02/01 01:00:14;;;;;;;;;;;;;;;20.13;44.26;100605.66;5069308;28;3053;-61
2023/02/01 01:02:41;;;;;;;;;;;;;;;20.12;44.20;100604.94;5050131;28;3017;-61
2023/02/01 01:05:07;;;;;;;;;;;;;;;20.13;44.10;100605.66;5050364;28;3387;-62
2023/02/01 01:07:33;;;;;;;;;;;;;;;20.12;44.20;100604.19;5056157;28;3496;-61
2023/02/01 01:10:00;;;;;;;;;;;;;;;20.12;44.27;100607.06;5058811;28;3102;-61
2023/02/01 01:12:26;;;;;;;;;;;;;;;20.11;44.44;100606.31;5050755;28;3020;-61
2023/02/01 01:14:53;;;;;;;;;;;;;;;20.12;44.37;100604.19;5048568;28;3073;-61
2023/02/01 01:17:20;;;;;;;;;;;;;;;20.11;44.34;100606.31;5046776;28;3127;-61
2023/02/01 01:19:46;;;;;;;;;;;;;;;20.11;44.24;100596.94;5054365;28;3488;-62
2023/02/01 01:22:13;;;;;;;;;;;;;;;20.13;44.25;100597.03;5049101;28;3108;-61
2023/02/01 01:24:39;;;;;;;;;;;;;;;20.16;44.29;100598.59;5062286;28;3021;-62
2023/02/01 01:27:06;;;;;;;;;;;;;;;20.17;44.47;100600.09;5056403;28;2805;-62
2023/02/01 01:29:32;;;;;;;;;;;;;;;20.16;44.81;100598.59;5056172;28;1977;-61
2023/02/01 01:31:59;;;;;;;;;;;;;;;20.13;44.67;100591.28;5053059;28;3020;-61
2023/02/01 01:34:25;;;;;;;;;;;;;;;20.11;44.74;100588.31;5053071;28;3004;-61
2023/02/01 01:36:52;;;;;;;;;;;;;;;20.07;44.66;100586.03;5056004;28;2972;-61
2023/02/01 01:39:18;;;;;;;;;;;;;;;20.06;44.53;100579.53;5069381;28;1621;-61
2023/02/01 01:41:45;;;;;;;;;;;;;;;20.05;44.69;100578.06;5056345;28;2717;-61
2023/02/01 01:44:35;;;;;;;;;;;;;;;20.05;44.55;100572.31;5061716;28;2997;-61
2023/02/01 01:47:01;;;;;;;;;;;;;;;20.04;44.46;100570.84;5054710;28;3029;-61
2023/02/01 01:49:28;;;;;;;;;;;;;;;20.04;44.44;100570.06;5071838;28;1969;-61
2023/02/01 01:51:55;;;;;;;;;;;;;;;20.04;44.42;100570.06;5050012;28;3064;-61
2023/02/01 01:54:23;;;;;;;;;;;;;;;20.03;44.38;100572.22;5054843;28;3277;-61
2023/02/01 01:56:55;;;;;;;;;;;;;;;20.02;44.38;100576.50;5054791;28;3280;-61
2023/02/01 01:59:21;;;;;;;;;;;;;;;20.02;44.23;100578.59;5039484;28;3096;-62
2023/02/01 02:01:48;;;;;;;;;;;;;;;20.02;44.21;100579.38;5054140;28;3338;-62
2023/02/01 02:04:14;;;;;;;;;;;;;;;20.02;44.19;100581.47;5053442;28;2885;-61
2023/02/01 02:06:45;;;;;;;;;;;;;;;20.00;44.14;100581.41;5052320;28;2565;-61
2023/02/01 02:09:11;;;;;;;;;;;;;;;19.99;44.33;100583.53;5049543;28;2771;-61
2023/02/01 02:11:38;;;;;;;;;;;;;;;19.99;44.28;100585.66;5052031;28;3497;-61
2023/02/01 02:14:04;;;;;;;;;;;;;;;19.99;44.22;100589.28;5045659;28;1739;-61
2023/02/01 02:16:34;;;;;;;;;;;;;;;19.97;44.22;100583.44;5050704;28;2938;-61
2023/02/01 02:19:12;;;;;;;;;;;;;;;19.96;44.12;100587.72;5048241;28;3301;-61
2023/02/01 02:21:48;;;;;;;;;;;;;;;19.97;44.06;100571.22;5042259;28;2419;-61
2023/02/01 02:24:17;;;;;;;;;;;;;;;19.95;44.24;100574.00;5051781;28;2422;-61
2023/02/01 02:26:43;;;;;;;;;;;;;;;19.95;44.23;100574.75;5050810;28;2679;-61
2023/02/01 02:29:30;;;;;;;;;;;;;;;19.94;44.21;100570.38;5048692;28;2496;-61
2023/02/01 02:31:56;;;;;;;;;;;;;;;19.95;44.11;100577.63;5050084;28;2727;-61
2023/02/01 02:34:32;;;;;;;;;;;;;;;19.98;44.20;100573.44;5055349;28;2758;-61
2023/02/01 02:37:09;;;;;;;;;;;;;;;19.99;44.24;100574.19;5053596;28;2615;-61
2023/02/01 02:39:35;;;;;;;;;;;;;;;20.00;44.33;100564.19;5050164;28;2613;-61
2023/02/01 02:47:52;;;;;;;;;;;;;;;20.01;44.33;100575.00;5052754;28;2508;-61
2023/02/01 03:04:20;;;;;;;;;;;;;;;19.98;44.34;100550.44;5053067;28;2499;-61
2023/02/01 03:06:48;;;;;;;;;;;;;;;19.97;44.36;100551.81;5053658;28;2401;-61
2023/02/01 03:09:34;;;;;;;;;;;;;;;19.96;44.28;100547.50;5057013;28;2478;-61
2023/02/01 03:14:47;;;;;;;;;;;;;;;19.96;44.15;100536.00;5047901;28;2962;-61
2023/02/01 03:17:14;;;;;;;;;;;;;;;19.96;44.26;100532.38;5032381;28;3029;-61
2023/02/01 03:19:43;;;;;;;;;;;;;;;19.95;44.25;100531.66;5046993;28;3029;-62
2023/02/01 03:22:11;;;;;;;;;;;;;;;19.94;44.24;100521.53;5043052;28;2952;-61
2023/02/01 03:24:38;;;;;;;;;;;;;;;19.93;44.24;100520.06;5045707;28;2997;-61
2023/02/01 03:27:10;;;;;;;;;;;;;;;19.93;44.26;100519.31;5053400;28;1767;-61
2023/02/01 03:29:37;;;;;;;;;;;;;;;19.92;44.13;100509.94;5056968;28;3064;-61
2023/02/01 03:32:04;;;;;;;;;;;;;;;19.94;44.15;100510.03;5050178;28;3469;-62
2023/02/01 03:34:31;;;;;;;;;;;;;;;19.92;44.26;100507.06;5053262;28;2392;-61
2023/02/01 03:37:01;;;;;;;;;;;;;;;19.90;44.29;100504.09;5050562;28;2717;-61
2023/02/01 03:39:32;;;;;;;;;;;;;;;19.90;44.18;100504.09;5035687;28;3008;-61
2023/02/01 03:41:59;;;;;;;;;;;;;;;19.89;44.17;100505.50;5060786;28;3063;-61
2023/02/01 03:44:26;;;;;;;;;;;;;;;19.90;44.10;100495.50;5040720;28;2960;-61
2023/02/01 03:46:57;;;;;;;;;;;;;;;19.90;44.16;100501.25;5035544;28;1590;-62
2023/02/01 03:49:32;;;;;;;;;;;;;;;19.93;44.16;100508.56;5032263;28;2928;-61
2023/02/01 03:51:59;;;;;;;;;;;;;;;19.94;44.25;100509.31;5018181;28;2748;-62
2023/02/01 03:54:26;;;;;;;;;;;;;;;19.95;44.33;100496.41;5046272;28;1724;-62
2023/02/01 03:56:53;;;;;;;;;;;;;;;19.96;44.34;100501.50;5043727;28;2808;-61
2023/02/01 03:59:20;;;;;;;;;;;;;;;19.97;44.35;100502.97;5028330;28;1717;-61
2023/02/01 04:01:46;;;;;;;;;;;;;;;19.97;44.33;100491.47;5036595;28;2634;-61
2023/02/01 04:04:19;;;;;;;;;;;;;;;19.98;44.46;100492.97;5045111;28;1573;-61
2023/02/01 04:06:48;;;;;;;;;;;;;;;19.99;44.59;100494.44;5058808;28;2725;-61
2023/02/01 04:09:15;;;;;;;;;;;;;;;20.00;44.62;100501.69;5061787;28;2615;-61
2023/02/01 04:11:41;;;;;;;;;;;;;;;19.99;44.63;100487.97;5044077;28;2648;-61
2023/02/01 04:14:08;;;;;;;;;;;;;;;19.97;44.55;100491.47;5046700;28;2600;-61
2023/02/01 04:16:34;;;;;;;;;;;;;;;19.97;44.54;100497.22;5048898;28;2394;-61
2023/02/01 04:19:00;;;;;;;;;;;;;;;19.99;44.65;100499.44;5045021;28;2655;-61
2023/02/01 04:21:27;;;;;;;;;;;;;;;20.00;44.59;100493.06;5037888;28;2433;-61
2023/02/01 04:23:53;;;;;;;;;;;;;;;20.01;44.74;100482.31;5047809;28;2078;-61
2023/02/01 04:26:20;;;;;;;;;;;;;;;20.00;44.73;100478.69;5044471;28;2698;-61
2023/02/01 04:28:49;;;;;;;;;;;;;;;20.01;44.74;100485.91;5044698;28;2556;-61
2023/02/01 04:31:15;;;;;;;;;;;;;;;20.03;44.71;100483.13;5047784;28;2452;-61
2023/02/01 04:33:42;;;;;;;;;;;;;;;20.03;44.70;100482.38;5056857;28;2640;-61
2023/02/01 04:36:08;;;;;;;;;;;;;;;20.02;44.73;100475.16;5052191;28;2675;-61
2023/02/01 04:38:34;;;;;;;;;;;;;;;20.01;44.69;100480.16;5057636;28;2346;-61
2023/02/01 04:41:01;;;;;;;;;;;;;;;20.01;44.78;100474.41;5058177;28;2595;-61
2023/02/01 04:43:27;;;;;;;;;;;;;;;20.01;44.65;100477.28;5056951;28;2619;-61
2023/02/01 04:45:53;;;;;;;;;;;;;;;19.99;44.83;100485.09;5055859;28;2580;-62
2023/02/01 04:48:20;;;;;;;;;;;;;;;19.99;44.64;100477.19;5055146;28;2616;-61
2023/02/01 04:50:50;;;;;;;;;;;;;;;19.99;44.63;100470.72;5056897;28;2453;-61
2023/02/01 04:53:16;;;;;;;;;;;;;;;19.99;44.55;100471.44;5058332;28;2600;-61
2023/02/01 04:55:43;;;;;;;;;;;;;;;20.00;44.57;100470.06;5058527;28;1663;-61
2023/02/01 04:58:09;;;;;;;;;;;;;;;20.00;44.42;100464.31;5055633;28;2601;-61
2023/02/01 05:00:36;;;;;;;;;;;;;;;20.00;44.49;100470.06;5055051;28;2592;-61
2023/02/01 05:03:02;;;;;;;;;;;;;;;20.01;44.60;100457.16;5049527;28;2557;-61
2023/02/01 05:05:28;;;;;;;;;;;;;;;20.00;44.53;100467.19;5055996;28;2635;-60
2023/02/01 05:07:55;;;;;;;;;;;;;;;19.99;44.66;100454.19;5049466;28;2621;-60
2023/02/01 05:10:21;;;;;;;;;;;;;;;20.00;44.34;100464.31;5041970;28;2547;-60
2023/02/01 05:15:32;;;;;;;;;;;;;;;20.00;44.58;100455.69;5049269;28;1898;-61
2023/02/01 05:17:59;;;;;;;;;;;;;;;20.00;44.53;100461.44;5050000;28;2465;-61
2023/02/01 05:20:25;;;;;;;;;;;;;;;20.02;44.55;100455.03;5052348;28;1729;-61
2023/02/01 05:22:52;;;;;;;;;;;;;;;20.02;44.59;100457.91;5049346;28;2782;-61
2023/02/01 05:25:18;;;;;;;;;;;;;;;20.03;44.58;100440.00;5053606;28;2822;-61
2023/02/01 05:27:45;;;;;;;;;;;;;;;20.02;44.55;100446.41;5056535;28;2993;-60
2023/02/01 05:30:11;;;;;;;;;;;;;;;20.02;44.69;100438.53;5051312;28;3083;-61
2023/02/01 05:32:38;;;;;;;;;;;;;;;20.03;44.57;100437.13;5054450;28;2702;-60
2023/02/01 05:35:04;;;;;;;;;;;;;;;20.01;44.64;100434.16;5052594;28;2965;-61
2023/02/01 05:37:30;;;;;;;;;;;;;;;20.01;44.91;100427.69;5053855;28;2961;-63
2023/02/01 05:39:57;;;;;;;;;;;;;;;19.89;43.06;100433.69;5046116;28;3203;-61
2023/02/01 05:42:23;;;;;;;;;;;;;;;19.83;43.70;100422.66;5048403;28;3035;-64
2023/02/01 05:44:49;;;;;;;;;;;;;;;19.99;44.29;100425.47;5044494;28;2792;-72
2023/02/01 05:47:16;;;;;;;;;;;;;;;20.11;44.29;100430.22;5056405;28;2911;-72
2023/02/01 05:49:42;;;;;;;;;;;;;;;20.15;44.22;100421.78;5050667;28;2953;-73
2023/02/01 05:52:08;;;;;;;;;;;;;;;20.18;44.14;100423.34;5043544;28;2632;-72
2023/02/01 05:54:35;;;;;;;;;;;;;;;20.20;44.24;100414.78;5048918;28;2837;-72
2023/02/01 05:57:01;;;;;;;;;;;;;;;20.21;44.37;100416.28;5059250;28;2743;-74
2023/02/01 05:59:27;;;;;;;;;;;;;;;20.22;44.30;100406.25;5054288;28;2765;-74
2023/02/01 06:01:54;;;;;;;;;;;;;;;20.21;44.55;100396.91;5054178;28;3242;-73
2023/02/01 06:04:20;;;;;;;;;;;;;;;20.22;44.44;100406.25;5053309;28;2786;-72
2023/02/01 06:06:47;;;;;;;;;;;;;;;20.21;44.47;100399.03;5054930;28;3246;-74
2023/02/01 06:09:13;;;;;;;;;;;;;;;20.21;44.55;100401.91;5049959;28;2569;-75
2023/02/01 06:11:41;;;;;;;;;;;;;;;20.24;44.52;100400.59;5052449;28;2821;-75
2023/02/01 06:14:07;;;;;;;;;;;;;;;20.24;44.66;100397.72;5055120;28;2806;-74
2023/02/01 06:16:34;;;;;;;;;;;;;;;20.24;44.57;100391.97;5053377;28;2806;-73
2023/02/01 06:19:00;;;;;;;;;;;;;;;20.24;44.70;100392.69;5052815;28;2900;-75
2023/02/01 06:21:26;;;;;;;;;;;;;;;20.25;44.55;100390.56;5048488;28;2841;-75
2023/02/01 06:23:53;;;;;;;;;;;;;;;20.27;44.54;100390.63;5058587;28;2762;-76
2023/02/01 06:26:19;;;;;;;;;;;;;;;20.26;44.71;100377.66;5055098;28;2792;-75
2023/02/01 06:28:46;;;;;;;;;;;;;;;20.25;44.77;100384.81;5055931;28;2730;-75
2023/02/01 06:31:12;;;;;;;;;;;;;;;20.26;44.84;100380.53;5054074;28;2798;-75
2023/02/01 06:33:39;;;;;;;;;;;;;;;20.26;45.05;100381.28;5058116;28;2873;-76
2023/02/01 06:36:06;;;;;;;;;;;;;;;20.27;45.01;100379.13;5053518;28;2499;-75
2023/02/01 06:38:36;;;;;;;;;;;;;;;20.27;44.93;100370.50;5054965;28;3164;-76
2023/02/01 06:41:02;;;;;;;;;;;;;;;20.28;44.98;100369.13;5055691;28;2798;-75
2023/02/01 06:43:28;;;;;;;;;;;;;;;20.29;44.89;100370.59;5048609;28;2918;-76
2023/02/01 06:45:59;;;;;;;;;;;;;;;20.30;44.93;100366.31;5056666;28;2932;-77
2023/02/01 06:48:25;;;;;;;;;;;;;;;20.30;44.94;100355.56;5051507;28;2938;-77
2023/02/01 06:50:51;;;;;;;;;;;;;;;20.32;44.97;100357.03;5055383;28;3343;-74
2023/02/01 06:53:18;;;;;;;;;;;;;;;20.31;44.84;100356.28;5050859;28;2914;-74
2023/02/01 06:55:57;;;;;;;;;;;;;;;20.30;44.89;100360.56;5057902;28;2761;-77
2023/02/01 06:58:23;;;;;;;;;;;;;;;20.31;44.88;100362.03;5051549;28;2823;-75
2023/02/01 07:00:50;;;;;;;;;;;;;;;20.30;44.84;100364.19;5054004;28;2991;-74
2023/02/01 07:03:16;;;;;;;;;;;;;;;20.32;44.82;100357.03;5049501;28;2967;-76
2023/02/01 07:05:43;;;;;;;;;;;;;;;20.32;44.89;100357.78;5054766;28;2650;-75
2023/02/01 07:08:09;;;;;;;;;;;;;;;20.30;44.88;100352.69;5053786;28;2924;-75
2023/02/01 07:10:35;;;;;;;;;;;;;;;20.30;44.96;100340.44;5054341;28;2814;-76
2023/02/01 07:13:02;;;;;;;;;;;;;;;20.30;44.81;100355.56;5056329;28;3086;-77
2023/02/01 07:15:28;;;;;;;;;;;;;;;20.32;44.98;100349.16;5048085;28;3047;-77
2023/02/01 07:17:54;;;;;;;;;;;;;;;20.34;44.85;100346.38;5051849;28;2957;-75
2023/02/01 07:20:21;;;;;;;;;;;;;;;20.23;44.92;100338.75;5046848;28;2862;-68
2023/02/01 07:22:48;;;;;;;;;;;;;;;18.04;43.92;100332.94;5055544;28;2897;-68
2023/02/01 07:25:14;;;;;;;;;;;;;;;17.44;43.94;100325.72;5049818;28;2769;-68
2023/02/01 07:27:40;;;;;;;;;;;;;;;17.14;42.03;100326.41;5051193;28;2873;-69
2023/02/01 07:30:07;;;;;;;;;;;;;;;16.95;43.07;100324.00;5050424;28;3024;-62
2023/02/01 07:32:33;;;;;;;;;;;;;;;18.25;41.56;100340.38;5052547;28;2796;-64
2023/02/01 07:35:00;;;;;;;;;;;;;;;18.89;42.15;100334.66;5050313;28;3174;-62
2023/02/01 07:37:26;;;;;;;;;;;;;;;19.18;41.80;100331.63;5051830;28;2987;-61
2023/02/01 07:39:52;;;;;;;;;;;;;;;19.37;41.77;100327.38;5047072;28;2962;-62
2023/02/01 07:42:19;;;;;;;;;;;;;;;19.50;41.52;100330.78;5050423;28;2935;-71
2023/02/01 07:44:45;;;;;;;;;;;;;;;19.61;41.87;100333.41;5047604;28;3087;-72
2023/02/01 07:47:11;;;;;;;;;;;;;;;19.69;41.78;100323.69;5051229;28;3265;-72
2023/02/01 07:49:38;;;;;;;;;;;;;;;19.71;41.91;100326.63;5049597;28;2882;-71
2023/02/01 07:52:04;;;;;;;;;;;;;;;19.76;42.13;100322.53;5047785;28;2777;-72
2023/02/01 07:54:30;;;;;;;;;;;;;;;19.79;42.14;100321.19;5050773;28;3228;-73
2023/02/01 07:56:57;;;;;;;;;;;;;;;19.82;42.42;100325.66;5053076;28;2934;-72
2023/02/01 07:59:23;;;;;;;;;;;;;;;19.83;42.58;100312.75;5055682;28;3135;-72
2023/02/01 08:01:49;;;;;;;;;;;;;;;19.86;42.68;100314.31;5051332;28;3049;-72
2023/02/01 08:04:16;;;;;;;;;;;;;;;19.86;42.70;100314.31;5052041;28;2871;-72
2023/02/01 08:06:42;;;;;;;;;;;;;;;19.88;42.88;100311.50;5062064;28;2537;-72
2023/02/01 08:09:10;;;;;;;;;;;;;;;19.89;42.99;100318.75;5050865;28;2726;-72
2023/02/01 08:11:37;;;;;;;;;;;;;;;19.88;43.00;100312.28;5057276;28;3170;-72
2023/02/01 08:14:04;;;;;;;;;;;;;;;19.91;43.13;100318.81;5052380;28;3189;-72
2023/02/01 08:16:30;;;;;;;;;;;;;;;19.91;43.13;100315.22;5057190;28;2581;-73
2023/02/01 08:18:57;;;;;;;;;;;;;;;19.92;43.38;100308.78;5051339;28;2936;-67
2023/02/01 08:21:24;;;;;;;;;;;;;;;19.97;43.35;100307.56;5071517;28;3151;-71
2023/02/01 08:23:51;;;;;;;;;;;;;;;19.95;43.58;100310.38;5059458;28;1845;-71
2023/02/01 08:26:18;;;;;;;;;;;;;;;20.00;43.30;100306.25;5057455;28;3456;-71
2023/02/01 08:28:46;;;;;;;;;;;;;;;19.99;43.33;100313.38;5052789;28;2970;-70
2023/02/01 08:31:14;;;;;;;;;;;;;;;20.01;43.46;100319.22;5060466;28;2880;-70
2023/02/01 08:33:41;;;;;;;;;;;;;;;20.01;43.62;100319.22;5058848;28;2843;-72
2023/02/01 08:36:07;;;;;;;;;;;;;;;20.02;43.63;100311.31;5061623;28;1804;-72
2023/02/01 08:38:37;;;;;;;;;;;;;;;20.02;43.66;100320.72;5057688;28;2959;-70
2023/02/01 08:41:04;;;;;;;;;;;;;;;20.02;43.71;100320.72;5056435;28;3123;-71
2023/02/01 08:43:30;;;;;;;;;;;;;;;20.04;43.60;100338.03;5055716;28;3148;-72
2023/02/01 08:45:56;;;;;;;;;;;;;;;20.04;43.66;100346.66;5055755;28;3044;-71
2023/02/01 08:48:23;;;;;;;;;;;;;;;20.05;43.90;100353.88;5056487;28;2902;-70
2023/02/01 08:50:49;;;;;;;;;;;;;;;20.07;43.68;100362.56;5057035;28;2828;-70
2023/02/01 08:53:15;;;;;;;;;;;;;;;20.08;43.82;100352.53;5055983;28;3002;-72
2023/02/01 08:55:42;;;;;;;;;;;;;;;20.11;43.82;100358.38;5057343;28;3230;-71
2023/02/01 08:58:08;;;;;;;;;;;;;;;20.10;43.81;100360.53;5054496;28;3104;-71
2023/02/01 09:00:34;;;;;;;;;;;;;;;20.11;43.96;100372.75;5055601;28;3054;-71
2023/02/01 09:03:01;;;;;;;;;;;;;;;20.13;43.82;100378.56;5059885;28;2940;-70
2023/02/01 09:05:28;;;;;;;;;;;;;;;20.13;44.00;100372.81;5057021;28;3059;-70
2023/02/01 09:08:14;;;;;;;;;;;;;;;20.11;43.96;100369.88;5057297;28;2887;-70
2023/02/01 09:10:41;;;;;;;;;;;;;;;20.14;43.86;100374.31;5053639;28;2919;-70
2023/02/01 09:13:07;;;;;;;;;;;;;;;20.14;44.00;100371.44;5057932;28;3024;-70
2023/02/01 09:15:34;;;;;;;;;;;;;;;20.15;43.88;100372.91;5054558;28;2934;-70
2023/02/01 09:18:01;;;;;;;;;;;;;;;20.15;44.10;100378.66;5058063;28;2888;-70
2023/02/01 09:20:27;;;;;;;;;;;;;;;20.16;44.03;100385.88;5053375;28;2991;-71
2023/02/01 09:22:54;;;;;;;;;;;;;;;20.18;43.99;100395.34;5057302;28;2923;-71
2023/02/01 09:25:20;;;;;;;;;;;;;;;20.18;43.97;100391.72;5052567;28;2922;-71
2023/02/01 09:27:47;;;;;;;;;;;;;;;20.19;44.00;100384.56;5058757;28;3425;-70
2023/02/01 09:30:13;;;;;;;;;;;;;;;20.17;44.10;100396.72;5056936;28;2818;-70
2023/02/01 09:32:40;;;;;;;;;;;;;;;20.19;44.01;100402.56;5055217;28;2871;-71
2023/02/01 09:35:06;;;;;;;;;;;;;;;20.20;44.20;100403.28;5054616;28;3056;-71
2023/02/01 09:37:32;;;;;;;;;;;;;;;20.21;44.16;100407.66;5058418;28;2936;-71
2023/02/01 09:39:59;;;;;;;;;;;;;;;20.20;44.17;100411.91;5055527;28;3206;-71
2023/02/01 09:42:35;;;;;;;;;;;;;;;20.21;44.13;100416.28;5054484;28;2919;-71
2023/02/01 09:45:19;;;;;;;;;;;;;;;20.22;44.15;100417.75;5055038;28;2915;-71
2023/02/01 09:47:55;;;;;;;;;;;;;;;20.22;44.10;100414.88;5054986;28;2738;-71
2023/02/01 09:50:34;;;;;;;;;;;;;;;20.24;44.12;100423.59;5056552;28;2972;-70
2023/02/01 09:53:01;;;;;;;;;;;;;;;20.25;44.20;100422.19;5052602;28;2950;-70
2023/02/01 09:55:34;;;;;;;;;;;;;;;20.25;44.17;100419.31;5053468;28;2896;-71
2023/02/01 09:58:02;;;;;;;;;;;;;;;20.27;44.33;100428.00;5063283;28;1782;-71
2023/02/01 10:00:29;;;;;;;;;;;;;;;20.26;44.25;100438.03;5052798;28;2907;-70
2023/02/01 10:02:55;;;;;;;;;;;;;;;20.25;44.15;100433.69;5054437;28;2935;-70
2023/02/01 10:05:28;;;;;;;;;;;;;;;20.25;44.20;100445.94;5055454;28;2868;-70
2023/02/01 10:08:27;;;;;;;;;;;;;;;20.26;44.24;100452.41;5055928;28;3018;-71
2023/02/01 10:10:53;;;;;;;;;;;;;;;20.26;44.29;100441.66;5032189;28;2917;-71
2023/02/01 10:13:31;;;;;;;;;;;;;;;20.26;44.24;100441.66;5051780;28;2950;-71
2023/02/01 10:16:07;;;;;;;;;;;;;;;20.27;44.24;100445.25;5056026;28;2896;-71
2023/02/01 10:18:40;;;;;;;;;;;;;;;20.28;44.29;100444.59;5058208;28;3245;-70
2023/02/01 10:21:09;;;;;;;;;;;;;;;20.30;44.30;100449.72;5052359;28;2896;-70
2023/02/01 10:23:54;;;;;;;;;;;;;;;20.29;44.31;100443.22;5053641;28;2974;-70
2023/02/01 10:26:23;;;;;;;;;;;;;;;20.30;44.41;100443.97;5053739;28;2864;-70
2023/02/01 10:28:53;;;;;;;;;;;;;;;20.31;44.29;100431.03;5052509;28;2987;-70
2023/02/01 10:31:21;;;;;;;;;;;;;;;20.30;44.57;100438.22;5049706;28;2943;-70
2023/02/01 10:33:49;;;;;;;;;;;;;;;20.30;44.42;100443.97;5055667;28;1970;-71
2023/02/01 10:36:23;;;;;;;;;;;;;;;20.30;44.42;100446.84;5051089;28;2845;-71
2023/02/01 10:38:49;;;;;;;;;;;;;;;20.30;44.43;100435.34;5046398;28;3026;-71
2023/02/01 10:41:17;;;;;;;;;;;;;;;20.30;44.45;100430.31;5054444;28;3074;-71
2023/02/01 10:43:43;;;;;;;;;;;;;;;20.31;44.45;100431.03;5053882;28;2955;-71
2023/02/01 10:46:09;;;;;;;;;;;;;;;20.33;44.44;100427.53;5056009;28;3060;-71
2023/02/01 10:48:36;;;;;;;;;;;;;;;20.32;44.42;100414.53;5058475;28;1606;-71
2023/02/01 10:51:05;;;;;;;;;;;;;;;20.34;44.37;100414.63;5057415;28;2943;-71
2023/02/01 10:53:35;;;;;;;;;;;;;;;20.35;44.45;100413.22;5054148;28;2903;-71
2023/02/01 10:56:11;;;;;;;;;;;;;;;20.38;44.56;100417.66;5051161;28;2857;-70
2023/02/01 10:58:46;;;;;;;;;;;;;;;20.35;44.51;100419.72;5054642;28;2793;-70
2023/02/01 11:01:17;;;;;;;;;;;;;;;20.37;44.50;100422.69;5054212;28;2956;-70
2023/02/01 11:03:46;;;;;;;;;;;;;;;20.36;44.54;100417.56;5052020;28;2936;-71
2023/02/01 11:06:25;;;;;;;;;;;;;;;20.37;44.42;100422.69;5053550;28;2951;-70
2023/02/01 11:08:52;;;;;;;;;;;;;;;20.36;44.58;100409.69;5054412;28;2883;-71
2023/02/01 11:11:19;;;;;;;;;;;;;;;20.38;44.37;100406.88;5053490;28;2888;-70
2023/02/01 11:13:51;;;;;;;;;;;;;;;20.38;44.60;100406.88;5056416;28;2991;-70
2023/02/01 11:16:17;;;;;;;;;;;;;;;20.38;44.40;100401.13;5050398;28;2905;-71
2023/02/01 11:18:43;;;;;;;;;;;;;;;20.40;44.38;100404.09;5052617;28;3017;-70
2023/02/01 11:21:11;;;;;;;;;;;;;;;20.41;44.50;100387.56;5048151;28;2975;-71
2023/02/01 11:23:42;;;;;;;;;;;;;;;20.40;44.40;100383.97;5053342;28;3022;-71
2023/02/01 11:26:12;;;;;;;;;;;;;;;20.42;44.30;100395.53;5053831;28;3157;-71
2023/02/01 11:28:39;;;;;;;;;;;;;;;20.41;44.49;100393.31;5054558;28;3301;-71
2023/02/01 11:31:08;;;;;;;;;;;;;;;20.41;44.62;100376.81;5055166;28;2946;-70
2023/02/01 11:33:35;;;;;;;;;;;;;;;20.41;44.67;100382.56;5052731;28;3318;-71
2023/02/01 11:36:12;;;;;;;;;;;;;;;20.41;44.62;100371.06;5053119;28;2887;-71
2023/02/01 11:38:38;;;;;;;;;;;;;;;20.41;44.48;100376.81;5054358;28;2965;-71
2023/02/01 11:41:11;;;;;;;;;;;;;;;20.40;44.58;100369.59;5051933;28;1847;-71
2023/02/01 11:43:38;;;;;;;;;;;;;;;20.40;44.68;100375.34;5055240;28;2924;-71
2023/02/01 11:46:15;;;;;;;;;;;;;;;20.43;44.65;100370.41;5055515;28;2863;-71
2023/02/01 11:48:42;;;;;;;;;;;;;;;20.43;44.51;100367.53;5049720;28;2962;-71
2023/02/01 11:51:15;;;;;;;;;;;;;;;20.42;44.50;100372.53;5053777;28;2923;-71
2023/02/01 11:53:47;;;;;;;;;;;;;;;20.43;44.65;100374.03;5054799;28;2616;-71
2023/02/01 11:56:20;;;;;;;;;;;;;;;20.42;44.48;100361.03;5048615;28;2909;-64
2023/02/01 11:59:08;;;;;;;;;;;;;;;20.43;44.18;100362.53;5050978;28;2961;-67
2023/02/01 12:01:34;;;;;;;;;;;;;;;20.45;44.46;100356.09;5049302;28;2821;-65
2023/02/01 12:04:18;;;;;;;;;;;;;;;20.38;44.57;100355.13;5053421;28;3076;-65
2023/02/01 12:06:54;;;;;;;;;;;;;;;20.36;44.28;100339.94;5051883;28;2979;-65
2023/02/01 12:09:21;;;;;;;;;;;;;;;20.38;44.15;100334.25;5051658;28;2682;-66
2023/02/01 12:11:52;;;;;;;;;;;;;;;20.40;44.40;100345.84;5053912;28;2734;-71
2023/02/01 12:14:23;;;;;;;;;;;;;;;20.42;44.04;100345.94;5053060;28;2641;-71
2023/02/01 12:17:08;;;;;;;;;;;;;;;20.41;44.22;100353.81;5053299;28;2782;-72
2023/02/01 12:19:34;;;;;;;;;;;;;;;20.41;44.23;100347.31;5052906;28;2585;-72
2023/02/01 12:22:13;;;;;;;;;;;;;;;20.41;44.06;100330.06;5055076;28;2634;-72
2023/02/01 12:24:44;;;;;;;;;;;;;;;20.40;44.16;100328.59;5052633;28;3249;-72
2023/02/01 12:27:13;;;;;;;;;;;;;;;20.40;44.21;100329.31;5053784;28;2793;-72
2023/02/01 12:29:48;;;;;;;;;;;;;;;20.40;44.36;100323.56;5054936;28;3130;-72
2023/02/01 12:32:25;;;;;;;;;;;;;;;20.40;44.28;100322.84;5051839;28;2746;-72
2023/02/01 12:35:02;;;;;;;;;;;;;;;20.37;44.39;100319.16;5053951;28;2877;-72
2023/02/01 12:37:38;;;;;;;;;;;;;;;20.36;44.39;100311.91;5055980;28;2786;-71
2023/02/01 12:40:16;;;;;;;;;;;;;;;20.37;44.49;100310.53;5054532;28;2438;-71
2023/02/01 12:42:44;;;;;;;;;;;;;;;20.36;44.46;100293.94;5055182;28;2631;-62
2023/02/01 12:45:23;;;;;;;;;;;;;;;20.40;44.59;100300.56;5055073;28;3159;-63
2023/02/01 12:47:51;;;;;;;;;;;;;;;20.40;44.59;100297.69;5053199;28;2869;-62
2023/02/01 12:50:22;;;;;;;;;;;;;;;20.40;44.68;100294.81;5057306;28;2615;-63
2023/02/01 12:52:50;;;;;;;;;;;;;;;20.40;44.51;100294.81;5058009;28;2829;-63
2023/02/01 12:55:22;;;;;;;;;;;;;;;20.41;44.53;100302.06;5060668;28;2903;-61
2023/02/01 12:57:50;;;;;;;;;;;;;;;20.01;44.23;100301.97;5057275;28;2814;-72
2023/02/01 13:00:17;;;;;;;;;;;;;;;20.14;43.83;100291.69;5055776;28;3021;-72
2023/02/01 13:02:51;;;;;;;;;;;;;;;20.25;43.78;100289.94;5057326;28;2961;-71
2023/02/01 13:05:21;;;;;;;;;;;;;;;20.31;43.97;100298.78;5056265;28;2976;-71
2023/02/01 13:07:50;;;;;;;;;;;;;;;20.35;43.91;100298.22;5054653;28;2769;-71
2023/02/01 13:10:35;;;;;;;;;;;;;;;20.36;43.74;100300.41;5056177;28;3044;-71
2023/02/01 13:13:10;;;;;;;;;;;;;;;20.39;43.99;100296.22;5058913;28;3114;-72
2023/02/01 13:15:51;;;;;;;;;;;;;;;20.39;43.97;100287.59;5055447;28;1974;-72
2023/02/01 13:18:18;;;;;;;;;;;;;;;20.40;44.01;100294.81;5057621;28;2795;-72
2023/02/01 13:20:50;;;;;;;;;;;;;;;20.41;44.16;100287.69;5053606;28;2873;-72